Terminal Aerodrome Forecast
Issued by NWS

Home | Current Version | Previous Version | Graphics & Text | Print | Product List | Glossary On
Versions: 1 2 3 4 5 6 7 8 9 10 11 12 13
000
FTUS43 KICT 202321
TAFSLN
TAF
KSLN 202321Z 2100/2124 35014KT P6SM FEW060
     FM210100 35006KT P6SM SKC
     FM210700 25005KT P6SM SKC
     FM211700 18008KT P6SM FEW070=

USA.gov is the U.S. government's official web portal to all federal, state and local government web resources and services.